sensor_id;sensor_type;location;lat;lon;timestamp;temperature;humidity
17399;DHT22;8817;48.170;8.592;2022-08-19T00:00:50;23.80;54.20
17399;DHT22;8817;48.170;8.592;2022-08-19T00:03:17;23.80;54.20
17399;DHT22;8817;48.170;8.592;2022-08-19T00:05:44;23.80;54.20
17399;DHT22;8817;48.170;8.592;2022-08-19T00:08:11;23.90;54.30
17399;DHT22;8817;48.170;8.592;2022-08-19T00:10:39;23.90;54.30
17399;DHT22;8817;48.170;8.592;2022-08-19T00:13:06;23.90;54.30
17399;DHT22;8817;48.170;8.592;2022-08-19T00:15:33;23.90;54.30
17399;DHT22;8817;48.170;8.592;2022-08-19T00:18:00;23.90;54.30
17399;DHT22;8817;48.170;8.592;2022-08-19T00:20:27;23.90;54.30
17399;DHT22;8817;48.170;8.592;2022-08-19T00:22:54;23.90;54.30
17399;DHT22;8817;48.170;8.592;2022-08-19T00:25:21;23.90;54.40
17399;DHT22;8817;48.170;8.592;2022-08-19T00:27:50;23.90;54.40
17399;DHT22;8817;48.170;8.592;2022-08-19T00:30:17;23.90;54.40
17399;DHT22;8817;48.170;8.592;2022-08-19T00:32:44;23.90;54.40
17399;DHT22;8817;48.170;8.592;2022-08-19T00:35:11;23.90;54.40
17399;DHT22;8817;48.170;8.592;2022-08-19T00:37:38;23.90;54.40
17399;DHT22;8817;48.170;8.592;2022-08-19T00:40:11;23.90;54.50
17399;DHT22;8817;48.170;8.592;2022-08-19T00:42:38;23.80;54.50
17399;DHT22;8817;48.170;8.592;2022-08-19T00:45:11;23.90;54.50
17399;DHT22;8817;48.170;8.592;2022-08-19T00:47:38;23.80;54.60
17399;DHT22;8817;48.170;8.592;2022-08-19T00:50:08;23.90;54.60
17399;DHT22;8817;48.170;8.592;2022-08-19T00:52:38;23.80;54.60
17399;DHT22;8817;48.170;8.592;2022-08-19T00:55:08;23.90;54.60
17399;DHT22;8817;48.170;8.592;2022-08-19T00:57:39;23.90;54.60
17399;DHT22;8817;48.170;8.592;2022-08-19T01:00:11;23.90;54.70
17399;DHT22;8817;48.170;8.592;2022-08-19T01:02:40;23.80;54.70
17399;DHT22;8817;48.170;8.592;2022-08-19T01:05:10;23.90;54.70
17399;DHT22;8817;48.170;8.592;2022-08-19T01:07:39;23.90;54.70
17399;DHT22;8817;48.170;8.592;2022-08-19T01:10:09;23.90;54.70
17399;DHT22;8817;48.170;8.592;2022-08-19T01:12:37;23.80;54.70
17399;DHT22;8817;48.170;8.592;2022-08-19T01:15:06;23.90;54.70
17399;DHT22;8817;48.170;8.592;2022-08-19T01:17:36;23.80;54.80
17399;DHT22;8817;48.170;8.592;2022-08-19T01:20:07;23.90;54.80
17399;DHT22;8817;48.170;8.592;2022-08-19T01:22:40;23.90;54.80
17399;DHT22;8817;48.170;8.592;2022-08-19T01:25:09;23.90;54.80
17399;DHT22;8817;48.170;8.592;2022-08-19T01:27:38;23.90;54.80
17399;DHT22;8817;48.170;8.592;2022-08-19T01:30:08;23.80;55.00
17399;DHT22;8817;48.170;8.592;2022-08-19T01:32:35;23.80;54.80
17399;DHT22;8817;48.170;8.592;2022-08-19T01:35:03;23.90;54.90
17399;DHT22;8817;48.170;8.592;2022-08-19T01:37:43;23.80;54.90
17399;DHT22;8817;48.170;8.592;2022-08-19T01:40:11;23.80;55.00
17399;DHT22;8817;48.170;8.592;2022-08-19T01:42:38;23.70;54.80
17399;DHT22;8817;48.170;8.592;2022-08-19T01:45:08;23.90;55.00
17399;DHT22;8817;48.170;8.592;2022-08-19T01:47:35;23.80;55.00
17399;DHT22;8817;48.170;8.592;2022-08-19T01:50:05;23.90;55.00
17399;DHT22;8817;48.170;8.592;2022-08-19T01:52:34;23.90;55.00
17399;DHT22;8817;48.170;8.592;2022-08-19T01:55:04;23.90;55.00
17399;DHT22;8817;48.170;8.592;2022-08-19T01:57:34;23.90;55.00
17399;DHT22;8817;48.170;8.592;2022-08-19T02:00:01;23.90;55.00
17399;DHT22;8817;48.170;8.592;2022-08-19T02:02:30;23.90;55.00
17399;DHT22;8817;48.170;8.592;2022-08-19T02:04:59;23.90;55.00
17399;DHT22;8817;48.170;8.592;2022-08-19T02:07:26;23.90;55.00
17399;DHT22;8817;48.170;8.592;2022-08-19T02:09:54;23.90;55.10
17399;DHT22;8817;48.170;8.592;2022-08-19T02:12:22;23.90;55.10
17399;DHT22;8817;48.170;8.592;2022-08-19T02:14:49;23.90;55.10
17399;DHT22;8817;48.170;8.592;2022-08-19T02:17:16;23.90;55.10
17399;DHT22;8817;48.170;8.592;2022-08-19T02:19:43;23.90;55.10
17399;DHT22;8817;48.170;8.592;2022-08-19T02:22:10;23.80;55.10
17399;DHT22;8817;48.170;8.592;2022-08-19T02:24:37;23.90;55.10
17399;DHT22;8817;48.170;8.592;2022-08-19T02:27:05;23.80;55.20
17399;DHT22;8817;48.170;8.592;2022-08-19T02:29:33;23.80;55.20
17399;DHT22;8817;48.170;8.592;2022-08-19T02:32:00;23.80;55.20
17399;DHT22;8817;48.170;8.592;2022-08-19T02:34:27;23.80;55.20
17399;DHT22;8817;48.170;8.592;2022-08-19T02:36:54;23.80;55.20
17399;DHT22;8817;48.170;8.592;2022-08-19T02:39:21;23.80;55.20
17399;DHT22;8817;48.170;8.592;2022-08-19T02:41:47;23.70;55.20
17399;DHT22;8817;48.170;8.592;2022-08-19T02:44:15;23.80;55.30
17399;DHT22;8817;48.170;8.592;2022-08-19T02:46:45;23.80;55.30
17399;DHT22;8817;48.170;8.592;2022-08-19T02:49:12;23.80;55.30
17399;DHT22;8817;48.170;8.592;2022-08-19T02:51:44;23.70;55.30
17399;DHT22;8817;48.170;8.592;2022-08-19T02:54:12;23.80;55.40
17399;DHT22;8817;48.170;8.592;2022-08-19T02:56:41;23.70;55.30
17399;DHT22;8817;48.170;8.592;2022-08-19T02:59:08;23.80;55.40
17399;DHT22;8817;48.170;8.592;2022-08-19T03:01:37;23.70;55.30
17399;DHT22;8817;48.170;8.592;2022-08-19T03:04:08;23.70;55.40
17399;DHT22;8817;48.170;8.592;2022-08-19T03:06:37;23.70;55.50
17399;DHT22;8817;48.170;8.592;2022-08-19T03:09:04;23.80;55.50
17399;DHT22;8817;48.170;8.592;2022-08-19T03:11:32;23.70;55.40
17399;DHT22;8817;48.170;8.592;2022-08-19T03:13:59;23.70;55.40
17399;DHT22;8817;48.170;8.592;2022-08-19T03:16:28;23.70;55.50
17399;DHT22;8817;48.170;8.592;2022-08-19T03:18:56;23.70;55.50
17399;DHT22;8817;48.170;8.592;2022-08-19T03:21:28;23.70;55.50
17399;DHT22;8817;48.170;8.592;2022-08-19T03:23:56;23.60;55.40
17399;DHT22;8817;48.170;8.592;2022-08-19T03:26:24;23.60;55.40
17399;DHT22;8817;48.170;8.592;2022-08-19T03:28:51;23.60;55.50
17399;DHT22;8817;48.170;8.592;2022-08-19T03:31:20;23.60;55.50
17399;DHT22;8817;48.170;8.592;2022-08-19T03:33:48;23.60;55.60
17399;DHT22;8817;48.170;8.592;2022-08-19T03:36:18;23.60;55.60
17399;DHT22;8817;48.170;8.592;2022-08-19T03:38:49;23.50;55.60
17399;DHT22;8817;48.170;8.592;2022-08-19T03:41:18;23.50;55.60
17399;DHT22;8817;48.170;8.592;2022-08-19T03:43:46;23.50;55.60
17399;DHT22;8817;48.170;8.592;2022-08-19T03:46:15;23.50;55.70
17399;DHT22;8817;48.170;8.592;2022-08-19T03:48:43;23.50;55.70
17399;DHT22;8817;48.170;8.592;2022-08-19T03:51:16;23.50;55.70
17399;DHT22;8817;48.170;8.592;2022-08-19T03:53:44;23.40;55.70
17399;DHT22;8817;48.170;8.592;2022-08-19T03:56:13;23.50;55.80
17399;DHT22;8817;48.170;8.592;2022-08-19T03:58:40;23.40;55.80
17399;DHT22;8817;48.170;8.592;2022-08-19T04:01:09;23.40;55.80
17399;DHT22;8817;48.170;8.592;2022-08-19T04:03:36;23.40;55.90
17399;DHT22;8817;48.170;8.592;2022-08-19T04:06:10;23.40;55.90
17399;DHT22;8817;48.170;8.592;2022-08-19T04:08:38;23.40;55.90
17399;DHT22;8817;48.170;8.592;2022-08-19T04:11:07;23.40;55.90
17399;DHT22;8817;48.170;8.592;2022-08-19T04:13:36;23.40;55.90
17399;DHT22;8817;48.170;8.592;2022-08-19T04:16:03;23.30;55.90
17399;DHT22;8817;48.170;8.592;2022-08-19T04:18:30;23.30;55.90
17399;DHT22;8817;48.170;8.592;2022-08-19T04:20:58;23.40;56.00
17399;DHT22;8817;48.170;8.592;2022-08-19T04:23:26;23.30;55.90
17399;DHT22;8817;48.170;8.592;2022-08-19T04:25:54;23.30;55.90
17399;DHT22;8817;48.170;8.592;2022-08-19T04:28:22;23.30;56.00
17399;DHT22;8817;48.170;8.592;2022-08-19T04:30:53;23.20;56.00
17399;DHT22;8817;48.170;8.592;2022-08-19T04:33:23;23.20;56.00
17399;DHT22;8817;48.170;8.592;2022-08-19T04:35:52;23.20;56.10
17399;DHT22;8817;48.170;8.592;2022-08-19T04:38:21;23.20;56.10
17399;DHT22;8817;48.170;8.592;2022-08-19T04:40:51;23.20;56.20
17399;DHT22;8817;48.170;8.592;2022-08-19T04:43:37;23.20;56.10
17399;DHT22;8817;48.170;8.592;2022-08-19T04:46:07;23.20;56.10
17399;DHT22;8817;48.170;8.592;2022-08-19T04:48:34;23.20;56.20
17399;DHT22;8817;48.170;8.592;2022-08-19T04:51:01;23.10;56.10
17399;DHT22;8817;48.170;8.592;2022-08-19T04:53:32;23.10;56.20
17399;DHT22;8817;48.170;8.592;2022-08-19T04:56:04;23.10;56.80
17399;DHT22;8817;48.170;8.592;2022-08-19T04:58:33;23.10;56.20
17399;DHT22;8817;48.170;8.592;2022-08-19T05:01:00;23.10;56.20
17399;DHT22;8817;48.170;8.592;2022-08-19T05:03:28;23.10;56.20
17399;DHT22;8817;48.170;8.592;2022-08-19T05:05:59;23.10;56.30
17399;DHT22;8817;48.170;8.592;2022-08-19T05:08:30;23.10;56.30
17399;DHT22;8817;48.170;8.592;2022-08-19T05:10:57;23.10;56.30
17399;DHT22;8817;48.170;8.592;2022-08-19T05:13:24;23.00;56.30
17399;DHT22;8817;48.170;8.592;2022-08-19T05:15:56;23.10;56.40
17399;DHT22;8817;48.170;8.592;2022-08-19T05:18:24;23.00;56.40
17399;DHT22;8817;48.170;8.592;2022-08-19T05:21:15;23.10;56.40
17399;DHT22;8817;48.170;8.592;2022-08-19T05:24:00;23.00;56.40
17399;DHT22;8817;48.170;8.592;2022-08-19T05:26:28;23.10;56.50
17399;DHT22;8817;48.170;8.592;2022-08-19T05:28:55;23.10;56.50
17399;DHT22;8817;48.170;8.592;2022-08-19T05:31:22;23.10;56.50
17399;DHT22;8817;48.170;8.592;2022-08-19T05:33:49;23.10;56.50
17399;DHT22;8817;48.170;8.592;2022-08-19T05:36:17;23.10;56.50
17399;DHT22;8817;48.170;8.592;2022-08-19T05:38:45;23.10;56.60
17399;DHT22;8817;48.170;8.592;2022-08-19T05:41:13;23.10;56.50
17399;DHT22;8817;48.170;8.592;2022-08-19T05:43:42;23.20;56.60
17399;DHT22;8817;48.170;8.592;2022-08-19T05:46:17;23.20;56.60
17399;DHT22;8817;48.170;8.592;2022-08-19T05:48:46;23.10;56.60
17399;DHT22;8817;48.170;8.592;2022-08-19T05:51:14;23.20;56.60
17399;DHT22;8817;48.170;8.592;2022-08-19T05:53:43;23.20;56.60
17399;DHT22;8817;48.170;8.592;2022-08-19T05:56:13;23.20;56.60
17399;DHT22;8817;48.170;8.592;2022-08-19T05:58:43;23.20;56.60
17399;DHT22;8817;48.170;8.592;2022-08-19T06:01:13;23.20;56.60
17399;DHT22;8817;48.170;8.592;2022-08-19T06:03:40;23.20;56.60
17399;DHT22;8817;48.170;8.592;2022-08-19T06:06:08;23.20;56.60
17399;DHT22;8817;48.170;8.592;2022-08-19T06:08:37;23.30;56.70
17399;DHT22;8817;48.170;8.592;2022-08-19T06:11:17;23.20;56.60
17399;DHT22;8817;48.170;8.592;2022-08-19T06:13:46;23.20;56.60
17399;DHT22;8817;48.170;8.592;2022-08-19T06:16:17;23.30;56.70
17399;DHT22;8817;48.170;8.592;2022-08-19T06:18:49;23.30;56.70
17399;DHT22;8817;48.170;8.592;2022-08-19T06:21:18;23.30;56.70
17399;DHT22;8817;48.170;8.592;2022-08-19T06:23:45;23.30;56.70
17399;DHT22;8817;48.170;8.592;2022-08-19T06:26:15;23.30;57.20
17399;DHT22;8817;48.170;8.592;2022-08-19T06:28:42;23.30;56.70
17399;DHT22;8817;48.170;8.592;2022-08-19T06:31:12;23.30;56.70
17399;DHT22;8817;48.170;8.592;2022-08-19T06:33:40;23.30;56.70
17399;DHT22;8817;48.170;8.592;2022-08-19T06:38:42;23.20;56.70
17399;DHT22;8817;48.170;8.592;2022-08-19T06:41:09;23.20;56.70
17399;DHT22;8817;48.170;8.592;2022-08-19T06:43:38;23.20;56.70
17399;DHT22;8817;48.170;8.592;2022-08-19T06:46:10;23.20;56.80
17399;DHT22;8817;48.170;8.592;2022-08-19T06:48:38;23.20;56.80
17399;DHT22;8817;48.170;8.592;2022-08-19T06:51:05;23.10;56.80
17399;DHT22;8817;48.170;8.592;2022-08-19T06:53:32;23.20;56.90
17399;DHT22;8817;48.170;8.592;2022-08-19T06:56:00;23.20;56.90
17399;DHT22;8817;48.170;8.592;2022-08-19T06:58:28;23.20;57.00
17399;DHT22;8817;48.170;8.592;2022-08-19T07:00:59;23.20;57.00
17399;DHT22;8817;48.170;8.592;2022-08-19T07:03:29;23.20;57.10
17399;DHT22;8817;48.170;8.592;2022-08-19T07:05:56;23.20;57.10
17399;DHT22;8817;48.170;8.592;2022-08-19T07:08:24;23.20;57.10
17399;DHT22;8817;48.170;8.592;2022-08-19T07:10:52;23.20;57.20
17399;DHT22;8817;48.170;8.592;2022-08-19T07:13:19;23.20;57.20
17399;DHT22;8817;48.170;8.592;2022-08-19T07:15:47;23.20;57.20
17399;DHT22;8817;48.170;8.592;2022-08-19T07:18:17;23.30;57.30
17399;DHT22;8817;48.170;8.592;2022-08-19T07:20:45;23.30;57.30
17399;DHT22;8817;48.170;8.592;2022-08-19T07:23:13;23.40;57.40
17399;DHT22;8817;48.170;8.592;2022-08-19T07:25:40;23.40;57.40
17399;DHT22;8817;48.170;8.592;2022-08-19T07:28:08;23.40;57.40
17399;DHT22;8817;48.170;8.592;2022-08-19T07:30:38;23.40;57.30
17399;DHT22;8817;48.170;8.592;2022-08-19T07:33:06;23.40;57.40
17399;DHT22;8817;48.170;8.592;2022-08-19T07:35:34;23.50;57.40
17399;DHT22;8817;48.170;8.592;2022-08-19T07:38:02;23.50;57.50
17399;DHT22;8817;48.170;8.592;2022-08-19T07:40:30;23.60;57.40
17399;DHT22;8817;48.170;8.592;2022-08-19T07:42:57;23.60;57.50
17399;DHT22;8817;48.170;8.592;2022-08-19T07:45:24;23.60;57.50
17399;DHT22;8817;48.170;8.592;2022-08-19T07:47:52;23.60;57.50
17399;DHT22;8817;48.170;8.592;2022-08-19T07:50:20;23.60;57.60
17399;DHT22;8817;48.170;8.592;2022-08-19T07:52:49;23.70;57.60
17399;DHT22;8817;48.170;8.592;2022-08-19T07:55:19;23.70;57.60
17399;DHT22;8817;48.170;8.592;2022-08-19T07:57:46;23.70;57.60
17399;DHT22;8817;48.170;8.592;2022-08-19T08:00:14;23.80;57.60
17399;DHT22;8817;48.170;8.592;2022-08-19T08:02:41;23.80;57.50
17399;DHT22;8817;48.170;8.592;2022-08-19T08:05:09;23.80;57.50
17399;DHT22;8817;48.170;8.592;2022-08-19T08:07:55;23.90;57.60
17399;DHT22;8817;48.170;8.592;2022-08-19T08:10:40;23.90;57.60
17399;DHT22;8817;48.170;8.592;2022-08-19T08:13:07;23.90;57.50
17399;DHT22;8817;48.170;8.592;2022-08-19T08:15:35;23.90;57.60
17399;DHT22;8817;48.170;8.592;2022-08-19T08:18:03;23.90;57.50
17399;DHT22;8817;48.170;8.592;2022-08-19T08:20:31;24.00;57.60
17399;DHT22;8817;48.170;8.592;2022-08-19T08:22:59;24.00;57.60
17399;DHT22;8817;48.170;8.592;2022-08-19T08:25:44;24.10;57.70
17399;DHT22;8817;48.170;8.592;2022-08-19T08:28:11;24.10;57.60
17399;DHT22;8817;48.170;8.592;2022-08-19T08:30:38;24.10;57.60
17399;DHT22;8817;48.170;8.592;2022-08-19T08:33:07;24.20;57.70
17399;DHT22;8817;48.170;8.592;2022-08-19T08:35:35;24.20;57.70
17399;DHT22;8817;48.170;8.592;2022-08-19T08:38:03;24.20;57.70
17399;DHT22;8817;48.170;8.592;2022-08-19T08:40:42;24.20;57.60
17399;DHT22;8817;48.170;8.592;2022-08-19T08:43:28;24.20;57.50
17399;DHT22;8817;48.170;8.592;2022-08-19T08:46:00;24.30;57.50
17399;DHT22;8817;48.170;8.592;2022-08-19T08:48:35;24.30;57.50
17399;DHT22;8817;48.170;8.592;2022-08-19T08:51:08;24.30;57.50
17399;DHT22;8817;48.170;8.592;2022-08-19T08:53:38;24.30;57.40
17399;DHT22;8817;48.170;8.592;2022-08-19T08:56:07;24.40;57.40
17399;DHT22;8817;48.170;8.592;2022-08-19T08:58:47;24.30;57.30
17399;DHT22;8817;48.170;8.592;2022-08-19T09:01:15;24.30;57.40
17399;DHT22;8817;48.170;8.592;2022-08-19T09:03:43;24.30;57.40
17399;DHT22;8817;48.170;8.592;2022-08-19T09:06:19;24.30;57.30
17399;DHT22;8817;48.170;8.592;2022-08-19T09:08:55;24.40;57.40
17399;DHT22;8817;48.170;8.592;2022-08-19T09:11:43;24.30;57.20
17399;DHT22;8817;48.170;8.592;2022-08-19T09:14:20;24.30;57.20
17399;DHT22;8817;48.170;8.592;2022-08-19T09:16:51;24.30;57.10
17399;DHT22;8817;48.170;8.592;2022-08-19T09:19:18;24.30;57.10
17399;DHT22;8817;48.170;8.592;2022-08-19T09:21:45;24.30;57.10
17399;DHT22;8817;48.170;8.592;2022-08-19T09:24:13;24.30;57.10
17399;DHT22;8817;48.170;8.592;2022-08-19T09:26:40;24.20;57.10
17399;DHT22;8817;48.170;8.592;2022-08-19T09:29:09;24.20;57.10
17399;DHT22;8817;48.170;8.592;2022-08-19T09:31:36;24.20;57.10
17399;DHT22;8817;48.170;8.592;2022-08-19T09:34:04;24.20;57.10
17399;DHT22;8817;48.170;8.592;2022-08-19T09:36:32;24.20;57.10
17399;DHT22;8817;48.170;8.592;2022-08-19T09:39:02;24.20;57.10
17399;DHT22;8817;48.170;8.592;2022-08-19T09:41:30;24.20;57.20
17399;DHT22;8817;48.170;8.592;2022-08-19T09:43:58;24.20;57.20
17399;DHT22;8817;48.170;8.592;2022-08-19T09:46:28;24.10;57.10
17399;DHT22;8817;48.170;8.592;2022-08-19T09:48:57;24.10;57.10
17399;DHT22;8817;48.170;8.592;2022-08-19T09:51:26;24.10;57.10
17399;DHT22;8817;48.170;8.592;2022-08-19T09:53:54;24.10;57.20
17399;DHT22;8817;48.170;8.592;2022-08-19T09:56:24;24.10;57.10
17399;DHT22;8817;48.170;8.592;2022-08-19T09:58:52;24.10;57.10
17399;DHT22;8817;48.170;8.592;2022-08-19T10:01:21;24.10;57.10
17399;DHT22;8817;48.170;8.592;2022-08-19T10:03:49;24.10;57.10
17399;DHT22;8817;48.170;8.592;2022-08-19T10:06:18;24.10;57.30
17399;DHT22;8817;48.170;8.592;2022-08-19T10:08:46;24.10;57.10
17399;DHT22;8817;48.170;8.592;2022-08-19T10:11:13;24.10;57.10
17399;DHT22;8817;48.170;8.592;2022-08-19T10:13:43;24.10;57.20
17399;DHT22;8817;48.170;8.592;2022-08-19T10:16:14;24.10;57.20
17399;DHT22;8817;48.170;8.592;2022-08-19T10:18:41;24.10;57.20
17399;DHT22;8817;48.170;8.592;2022-08-19T10:21:11;24.10;57.20
17399;DHT22;8817;48.170;8.592;2022-08-19T10:23:40;24.00;57.20
17399;DHT22;8817;48.170;8.592;2022-08-19T10:26:09;24.00;57.20
17399;DHT22;8817;48.170;8.592;2022-08-19T10:28:37;24.10;57.30
17399;DHT22;8817;48.170;8.592;2022-08-19T10:31:05;24.00;57.20
17399;DHT22;8817;48.170;8.592;2022-08-19T10:33:34;24.00;57.20
17399;DHT22;8817;48.170;8.592;2022-08-19T10:36:03;24.00;57.10
17399;DHT22;8817;48.170;8.592;2022-08-19T10:38:30;24.00;57.10
17399;DHT22;8817;48.170;8.592;2022-08-19T10:40:57;24.00;57.20
17399;DHT22;8817;48.170;8.592;2022-08-19T10:43:24;24.00;57.20
17399;DHT22;8817;48.170;8.592;2022-08-19T10:45:53;24.00;57.20
17399;DHT22;8817;48.170;8.592;2022-08-19T10:48:22;24.00;57.30
17399;DHT22;8817;48.170;8.592;2022-08-19T10:50:50;24.00;57.30
17399;DHT22;8817;48.170;8.592;2022-08-19T10:53:34;24.00;57.30
17399;DHT22;8817;48.170;8.592;2022-08-19T10:56:02;24.00;57.30
17399;DHT22;8817;48.170;8.592;2022-08-19T10:58:46;24.00;57.40
17399;DHT22;8817;48.170;8.592;2022-08-19T11:01:14;24.00;57.40
17399;DHT22;8817;48.170;8.592;2022-08-19T11:03:41;24.10;58.10
17399;DHT22;8817;48.170;8.592;2022-08-19T11:06:10;24.10;57.50
17399;DHT22;8817;48.170;8.592;2022-08-19T11:08:37;24.10;57.60
17399;DHT22;8817;48.170;8.592;2022-08-19T11:11:06;24.20;57.60
17399;DHT22;8817;48.170;8.592;2022-08-19T11:13:35;24.20;57.70
17399;DHT22;8817;48.170;8.592;2022-08-19T11:16:06;24.20;57.60
17399;DHT22;8817;48.170;8.592;2022-08-19T11:18:36;24.20;57.50
17399;DHT22;8817;48.170;8.592;2022-08-19T11:21:10;24.30;57.50
17399;DHT22;8817;48.170;8.592;2022-08-19T11:23:38;24.30;57.50
17399;DHT22;8817;48.170;8.592;2022-08-19T11:26:05;24.40;57.50
17399;DHT22;8817;48.170;8.592;2022-08-19T11:28:32;24.40;57.50
17399;DHT22;8817;48.170;8.592;2022-08-19T11:30:59;24.40;57.50
17399;DHT22;8817;48.170;8.592;2022-08-19T11:33:29;24.40;57.50
17399;DHT22;8817;48.170;8.592;2022-08-19T11:35:57;24.40;57.40
17399;DHT22;8817;48.170;8.592;2022-08-19T11:38:26;24.50;57.40
17399;DHT22;8817;48.170;8.592;2022-08-19T11:40:55;24.50;57.40
17399;DHT22;8817;48.170;8.592;2022-08-19T11:43:22;24.40;57.30
17399;DHT22;8817;48.170;8.592;2022-08-19T11:45:49;24.50;57.30
17399;DHT22;8817;48.170;8.592;2022-08-19T11:48:16;24.50;57.30
17399;DHT22;8817;48.170;8.592;2022-08-19T11:50:48;24.50;57.30
17399;DHT22;8817;48.170;8.592;2022-08-19T11:53:15;24.60;57.30
17399;DHT22;8817;48.170;8.592;2022-08-19T11:55:46;24.60;57.30
17399;DHT22;8817;48.170;8.592;2022-08-19T11:58:13;24.60;57.30
17399;DHT22;8817;48.170;8.592;2022-08-19T12:00:41;24.60;57.30
17399;DHT22;8817;48.170;8.592;2022-08-19T12:03:11;24.70;57.40
17399;DHT22;8817;48.170;8.592;2022-08-19T12:05:39;24.70;57.30
17399;DHT22;8817;48.170;8.592;2022-08-19T12:08:07;24.70;57.30
17399;DHT22;8817;48.170;8.592;2022-08-19T12:10:35;24.70;57.30
17399;DHT22;8817;48.170;8.592;2022-08-19T12:13:03;24.70;57.20
17399;DHT22;8817;48.170;8.592;2022-08-19T12:15:35;24.70;57.10
17399;DHT22;8817;48.170;8.592;2022-08-19T12:18:03;24.70;57.00
17399;DHT22;8817;48.170;8.592;2022-08-19T12:20:30;24.70;56.90
17399;DHT22;8817;48.170;8.592;2022-08-19T12:22:57;24.70;56.90
17399;DHT22;8817;48.170;8.592;2022-08-19T12:25:23;24.70;56.80
17399;DHT22;8817;48.170;8.592;2022-08-19T12:27:50;24.70;56.80
17399;DHT22;8817;48.170;8.592;2022-08-19T12:30:19;24.70;56.70
17399;DHT22;8817;48.170;8.592;2022-08-19T12:32:46;24.70;56.70
17399;DHT22;8817;48.170;8.592;2022-08-19T12:35:13;24.60;56.70
17399;DHT22;8817;48.170;8.592;2022-08-19T12:37:40;24.60;56.70
17399;DHT22;8817;48.170;8.592;2022-08-19T12:40:11;24.60;56.70
17399;DHT22;8817;48.170;8.592;2022-08-19T12:42:38;24.50;56.60
17399;DHT22;8817;48.170;8.592;2022-08-19T12:45:09;24.50;56.70
17399;DHT22;8817;48.170;8.592;2022-08-19T12:47:38;24.50;56.70
17399;DHT22;8817;48.170;8.592;2022-08-19T12:50:06;24.40;56.70
17399;DHT22;8817;48.170;8.592;2022-08-19T12:52:34;24.40;56.70
17399;DHT22;8817;48.170;8.592;2022-08-19T12:55:04;24.40;56.70
17399;DHT22;8817;48.170;8.592;2022-08-19T12:57:32;24.40;56.70
17399;DHT22;8817;48.170;8.592;2022-08-19T13:00:04;24.40;56.70
17399;DHT22;8817;48.170;8.592;2022-08-19T13:02:34;24.40;56.70
17399;DHT22;8817;48.170;8.592;2022-08-19T13:05:03;24.40;56.70
17399;DHT22;8817;48.170;8.592;2022-08-19T13:07:31;24.40;56.70
17399;DHT22;8817;48.170;8.592;2022-08-19T13:09:59;24.50;56.80
17399;DHT22;8817;48.170;8.592;2022-08-19T13:12:25;24.50;56.70
17399;DHT22;8817;48.170;8.592;2022-08-19T13:14:53;24.50;56.70
17399;DHT22;8817;48.170;8.592;2022-08-19T13:17:20;24.50;56.70
17399;DHT22;8817;48.170;8.592;2022-08-19T13:19:47;24.50;56.60
17399;DHT22;8817;48.170;8.592;2022-08-19T13:22:16;24.50;56.60
17399;DHT22;8817;48.170;8.592;2022-08-19T13:24:43;24.50;56.60
17399;DHT22;8817;48.170;8.592;2022-08-19T13:27:10;24.50;56.60
17399;DHT22;8817;48.170;8.592;2022-08-19T13:29:37;24.50;56.60
17399;DHT22;8817;48.170;8.592;2022-08-19T13:32:23;24.50;56.60
17399;DHT22;8817;48.170;8.592;2022-08-19T13:35:08;24.50;56.60
17399;DHT22;8817;48.170;8.592;2022-08-19T13:37:36;24.50;56.60
17399;DHT22;8817;48.170;8.592;2022-08-19T13:40:12;24.60;56.70
17399;DHT22;8817;48.170;8.592;2022-08-19T13:42:43;24.60;56.70
17399;DHT22;8817;48.170;8.592;2022-08-19T13:45:13;24.60;56.60
17399;DHT22;8817;48.170;8.592;2022-08-19T13:47:42;24.60;56.60
17399;DHT22;8817;48.170;8.592;2022-08-19T13:50:10;24.70;56.60
17399;DHT22;8817;48.170;8.592;2022-08-19T13:52:39;24.70;56.50
17399;DHT22;8817;48.170;8.592;2022-08-19T13:55:08;24.70;56.40
17399;DHT22;8817;48.170;8.592;2022-08-19T13:57:36;24.70;56.40
17399;DHT22;8817;48.170;8.592;2022-08-19T14:00:05;24.70;56.30
17399;DHT22;8817;48.170;8.592;2022-08-19T14:02:34;24.70;56.30
17399;DHT22;8817;48.170;8.592;2022-08-19T14:05:01;24.70;56.30
17399;DHT22;8817;48.170;8.592;2022-08-19T14:07:27;24.70;56.30
17399;DHT22;8817;48.170;8.592;2022-08-19T14:09:56;24.70;56.20
17399;DHT22;8817;48.170;8.592;2022-08-19T14:12:23;24.70;56.30
17399;DHT22;8817;48.170;8.592;2022-08-19T14:14:50;24.80;56.40
17399;DHT22;8817;48.170;8.592;2022-08-19T14:17:17;24.80;56.40
17399;DHT22;8817;48.170;8.592;2022-08-19T14:19:44;24.90;56.40
17399;DHT22;8817;48.170;8.592;2022-08-19T14:22:11;24.90;56.40
17399;DHT22;8817;48.170;8.592;2022-08-19T14:24:38;24.90;56.50
17399;DHT22;8817;48.170;8.592;2022-08-19T14:27:07;25.00;56.50
17399;DHT22;8817;48.170;8.592;2022-08-19T14:29:34;25.00;56.40
17399;DHT22;8817;48.170;8.592;2022-08-19T14:32:01;25.10;56.50
17399;DHT22;8817;48.170;8.592;2022-08-19T14:34:28;25.20;56.50
17399;DHT22;8817;48.170;8.592;2022-08-19T14:36:57;25.30;56.50
17399;DHT22;8817;48.170;8.592;2022-08-19T14:39:24;25.30;56.50
17399;DHT22;8817;48.170;8.592;2022-08-19T14:41:52;25.40;56.50
17399;DHT22;8817;48.170;8.592;2022-08-19T14:44:20;25.50;57.00
17399;DHT22;8817;48.170;8.592;2022-08-19T14:46:48;25.50;56.30
17399;DHT22;8817;48.170;8.592;2022-08-19T14:49:15;25.60;56.30
17399;DHT22;8817;48.170;8.592;2022-08-19T14:51:42;25.70;56.20
17399;DHT22;8817;48.170;8.592;2022-08-19T14:54:11;25.70;56.10
17399;DHT22;8817;48.170;8.592;2022-08-19T14:56:40;25.80;56.00
17399;DHT22;8817;48.170;8.592;2022-08-19T14:59:07;25.80;56.00
17399;DHT22;8817;48.170;8.592;2022-08-19T15:01:35;25.80;55.90
17399;DHT22;8817;48.170;8.592;2022-08-19T15:04:03;25.80;56.40
17399;DHT22;8817;48.170;8.592;2022-08-19T15:06:30;25.90;55.80
17399;DHT22;8817;48.170;8.592;2022-08-19T15:08:57;25.90;55.70
17399;DHT22;8817;48.170;8.592;2022-08-19T15:11:26;25.90;55.60
17399;DHT22;8817;48.170;8.592;2022-08-19T15:13:53;25.90;55.60
17399;DHT22;8817;48.170;8.592;2022-08-19T15:16:21;25.90;55.50
17399;DHT22;8817;48.170;8.592;2022-08-19T15:18:53;25.90;55.40
17399;DHT22;8817;48.170;8.592;2022-08-19T15:21:21;25.90;55.30
17399;DHT22;8817;48.170;8.592;2022-08-19T15:23:49;25.90;55.30
17399;DHT22;8817;48.170;8.592;2022-08-19T15:26:17;26.00;55.30
17399;DHT22;8817;48.170;8.592;2022-08-19T15:28:45;26.00;55.30
17399;DHT22;8817;48.170;8.592;2022-08-19T15:31:18;26.00;55.30
17399;DHT22;8817;48.170;8.592;2022-08-19T15:33:46;26.00;55.30
17399;DHT22;8817;48.170;8.592;2022-08-19T15:36:15;26.00;55.30
17399;DHT22;8817;48.170;8.592;2022-08-19T15:38:42;26.00;55.20
17399;DHT22;8817;48.170;8.592;2022-08-19T15:41:17;26.10;55.30
17399;DHT22;8817;48.170;8.592;2022-08-19T15:43:51;26.00;55.10
17399;DHT22;8817;48.170;8.592;2022-08-19T15:46:20;26.10;55.20
17399;DHT22;8817;48.170;8.592;2022-08-19T15:48:48;26.10;55.10
17399;DHT22;8817;48.170;8.592;2022-08-19T15:51:17;26.10;55.00
17399;DHT22;8817;48.170;8.592;2022-08-19T15:53:45;26.10;55.00
17399;DHT22;8817;48.170;8.592;2022-08-19T15:56:13;26.10;55.00
17399;DHT22;8817;48.170;8.592;2022-08-19T15:58:40;26.10;54.90